Time;durP1;ratioP1;P1;durP2;ratioP2;P2;SDS_P1;SDS_P2;PMS_P1;PMS_P2;Temp;Humidity;BMP_temperature;BMP_pressure;BME280_temperature;BME280_humidity;BME280_pressure;Samples;Min_cycle;Max_cycle;Signal;HPM_P1;HPM_P2
2022/05/02 00:00:47;;;;;;;13.67;10.77;;;11.40;99.90;;;;;;5058301;28;20895;-89
2022/05/02 00:03:14;;;;;;;13.70;11.30;;;11.40;99.90;;;;;;5059475;28;20436;-87
2022/05/02 00:05:43;;;;;;;13.27;11.20;;;11.30;99.90;;;;;;5059763;28;20416;-89
2022/05/02 00:08:11;;;;;;;12.60;10.83;;;11.20;99.90;;;;;;5055480;28;20424;-87
2022/05/02 00:10:37;;;;;;;13.97;9.80;;;11.30;99.90;;;;;;5049552;28;20916;-89
2022/05/02 00:13:06;;;;;;;14.97;11.57;;;11.30;99.90;;;;;;5047776;28;20536;-87
2022/05/02 00:15:33;;;;;;;12.03;10.63;;;11.30;99.90;;;;;;5048340;28;20833;-87
2022/05/02 00:18:00;;;;;;;12.40;10.57;;;11.30;99.90;;;;;;5046908;28;20451;-89
2022/05/02 00:20:29;;;;;;;14.30;11.50;;;11.20;99.90;;;;;;5040819;28;20523;-89
2022/05/02 00:22:58;;;;;;;11.73;10.20;;;11.10;99.90;;;;;;5040025;28;20848;-89
2022/05/02 00:25:26;;;;;;;14.90;10.27;;;11.10;99.90;;;;;;5037837;28;20523;-89
2022/05/02 00:27:53;;;;;;;17.30;10.90;;;11.20;99.90;;;;;;5038066;28;20424;-87
2022/05/02 00:30:20;;;;;;;13.57;10.60;;;11.20;99.90;;;;;;5039970;28;20512;-87
2022/05/02 00:32:48;;;;;;;15.83;11.97;;;11.10;99.90;;;;;;5040543;28;20432;-87
2022/05/02 00:35:15;;;;;;;13.23;11.30;;;11.00;99.90;;;;;;5039284;28;20497;-88
2022/05/02 00:37:43;;;;;;;13.50;10.87;;;10.90;99.90;;;;;;5039651;28;20544;-89
2022/05/02 00:40:14;;;;;;;13.57;11.20;;;10.90;99.90;;;;;;5038826;28;21021;-88
2022/05/02 00:42:43;;;;;;;14.30;11.37;;;10.90;99.90;;;;;;5039025;28;20950;-88
2022/05/02 00:45:12;;;;;;;14.40;10.90;;;10.80;99.90;;;;;;5039305;28;20842;-89
2022/05/02 00:47:38;;;;;;;13.30;10.87;;;10.80;99.90;;;;;;5040092;28;20556;-89
2022/05/02 00:50:08;;;;;;;14.70;12.20;;;10.80;99.90;;;;;;5039457;28;20490;-89
2022/05/02 00:52:35;;;;;;;12.47;11.13;;;10.70;99.90;;;;;;5040698;28;20432;-89
2022/05/02 00:55:04;;;;;;;14.37;11.37;;;10.70;99.90;;;;;;5041200;28;20438;-89
2022/05/02 00:57:34;;;;;;;12.43;10.90;;;10.80;99.90;;;;;;5040400;28;20487;-88
2022/05/02 01:00:01;;;;;;;12.13;10.57;;;10.80;99.90;;;;;;5039931;28;20996;-88
2022/05/02 01:02:28;;;;;;;12.10;10.40;;;10.80;99.90;;;;;;5046161;28;20523;-87
2022/05/02 01:04:55;;;;;;;11.93;10.10;;;10.90;99.90;;;;;;5046559;28;20524;-88
2022/05/02 01:07:21;;;;;;;13.53;10.57;;;10.90;99.90;;;;;;5040358;28;20495;-88
2022/05/02 01:09:50;;;;;;;14.47;10.60;;;10.90;99.90;;;;;;5038701;28;20896;-89
2022/05/02 01:12:19;;;;;;;18.40;10.87;;;10.90;99.90;;;;;;5039184;28;20936;-89
2022/05/02 01:14:50;;;;;;;12.77;11.33;;;10.90;99.90;;;;;;5039996;28;20461;-88
2022/05/02 01:17:17;;;;;;;13.40;11.53;;;10.90;99.90;;;;;;5045772;28;20474;-87
2022/05/02 01:19:45;;;;;;;13.13;11.57;;;10.90;99.90;;;;;;5056629;28;20512;-88
2022/05/02 01:22:13;;;;;;;14.83;11.67;;;10.80;99.90;;;;;;5055372;28;20484;-88
2022/05/02 01:24:41;;;;;;;17.37;11.97;;;10.70;99.90;;;;;;5041257;28;20456;-87
2022/05/02 01:27:10;;;;;;;13.73;11.47;;;10.70;99.90;;;;;;5038843;28;20481;-87
2022/05/02 01:29:40;;;;;;;11.90;10.57;;;10.70;99.90;;;;;;5046550;28;20484;-87
2022/05/02 01:32:08;;;;;;;13.60;10.80;;;10.80;99.90;;;;;;5042416;28;20477;-88
2022/05/02 01:34:36;;;;;;;13.00;10.60;;;10.80;99.90;;;;;;5049822;28;20419;-86
2022/05/02 01:37:03;;;;;;;12.67;11.33;;;10.80;99.90;;;;;;5057793;28;20477;-83
2022/05/02 01:39:31;;;;;;;12.70;10.30;;;10.90;99.90;;;;;;5056630;28;20448;-89
2022/05/02 01:42:00;;;;;;;15.17;11.87;;;10.80;99.90;;;;;;5052965;28;20438;-85
2022/05/02 01:44:27;;;;;;;11.80;10.57;;;10.80;99.90;;;;;;5055171;28;20465;-87
2022/05/02 01:46:54;;;;;;;15.27;11.50;;;10.80;99.90;;;;;;5048363;28;20479;-88
2022/05/02 01:49:22;;;;;;;14.27;10.90;;;10.70;99.90;;;;;;5039495;28;20505;-87
2022/05/02 01:51:49;;;;;;;12.63;10.57;;;10.70;99.90;;;;;;5036750;28;20526;-89
2022/05/02 01:54:15;;;;;;;13.70;11.27;;;10.70;99.90;;;;;;5036880;28;20440;-88
2022/05/02 01:56:44;;;;;;;12.97;11.53;;;10.70;99.90;;;;;;5037444;28;20513;-87
2022/05/02 01:59:11;;;;;;;14.30;11.93;;;10.80;99.90;;;;;;5039637;28;20484;-88
2022/05/02 02:01:39;;;;;;;14.03;11.70;;;10.90;99.90;;;;;;5039189;28;20491;-89
2022/05/02 02:05:48;;;;;;;13.37;11.53;;;10.90;99.90;;;;;;5042348;28;20412;-88
2022/05/02 02:06:52;;;;;;;13.10;11.60;;;10.90;99.90;;;;;;5046037;28;20449;-88
2022/05/02 02:09:19;;;;;;;13.10;11.73;;;10.90;99.90;;;;;;5054328;28;20450;-88
2022/05/02 02:11:48;;;;;;;13.53;11.60;;;10.90;99.90;;;;;;5053030;28;20428;-88
2022/05/02 02:14:15;;;;;;;15.33;11.40;;;10.90;99.90;;;;;;5040310;28;20513;-88
2022/05/02 02:16:42;;;;;;;15.40;12.43;;;10.90;99.90;;;;;;5040376;28;20499;-88
2022/05/02 02:19:09;;;;;;;15.10;11.37;;;10.80;99.90;;;;;;5039767;28;20888;-88
2022/05/02 02:21:35;;;;;;;15.73;12.50;;;10.90;99.90;;;;;;5047555;28;20869;-89
2022/05/02 02:24:04;;;;;;;14.07;11.97;;;10.80;99.90;;;;;;5046090;28;20449;-89
2022/05/02 02:26:31;;;;;;;14.10;12.07;;;10.80;99.90;;;;;;5041187;28;20434;-87
2022/05/02 02:29:00;;;;;;;17.73;11.53;;;10.80;99.90;;;;;;5040559;28;20473;-89
2022/05/02 02:31:27;;;;;;;14.70;12.17;;;10.80;99.90;;;;;;5041989;28;20510;-89
2022/05/02 02:33:54;;;;;;;17.17;13.57;;;10.70;99.90;;;;;;5042253;28;20526;-90
2022/05/02 02:36:21;;;;;;;13.90;12.37;;;10.70;99.90;;;;;;5057836;28;20900;-87
2022/05/02 02:38:48;;;;;;;14.47;11.40;;;10.70;99.90;;;;;;5051457;28;20460;-87
2022/05/02 02:41:15;;;;;;;14.93;12.60;;;10.80;99.90;;;;;;5042953;28;20465;-88
2022/05/02 02:43:42;;;;;;;15.83;12.50;;;10.80;99.90;;;;;;5041469;28;20527;-88
2022/05/02 02:46:10;;;;;;;15.40;11.87;;;10.90;99.90;;;;;;5044723;28;20488;-88
2022/05/02 02:48:37;;;;;;;13.00;11.57;;;10.80;99.90;;;;;;5051395;28;20511;-89
2022/05/02 02:51:04;;;;;;;14.97;12.70;;;10.80;99.90;;;;;;5044880;28;20456;-88
2022/05/02 02:53:31;;;;;;;15.37;12.17;;;10.80;99.90;;;;;;5043220;28;20461;-89
2022/05/02 02:55:57;;;;;;;19.67;12.50;;;10.80;99.90;;;;;;5042084;28;20472;-88
2022/05/02 02:58:24;;;;;;;15.37;12.03;;;10.80;99.90;;;;;;5052217;28;20943;-88
2022/05/02 03:00:51;;;;;;;14.43;12.10;;;10.70;99.90;;;;;;5045847;28;20449;-89
2022/05/02 03:03:20;;;;;;;14.40;12.43;;;10.70;99.90;;;;;;5041336;28;20442;-89
2022/05/02 03:08:27;;;;;;;17.00;13.27;;;10.70;99.90;;;;;;5041133;28;20433;-87
2022/05/02 03:10:55;;;;;;;13.83;11.83;;;10.70;99.90;;;;;;5043211;28;20466;-88
2022/05/02 03:13:22;;;;;;;14.00;11.93;;;10.70;99.90;;;;;;5043330;28;20485;-89
2022/05/02 03:15:49;;;;;;;15.67;11.27;;;10.80;99.90;;;;;;5041683;28;20449;-87
2022/05/02 03:18:16;;;;;;;14.00;11.80;;;10.80;99.90;;;;;;5040627;28;20944;-88
2022/05/02 03:20:44;;;;;;;15.00;12.50;;;10.80;99.90;;;;;;5039127;28;20827;-89
2022/05/02 03:23:11;;;;;;;17.23;13.03;;;10.70;99.90;;;;;;5040885;28;20450;-87
2022/05/02 03:25:38;;;;;;;14.27;12.77;;;10.70;99.90;;;;;;5058346;28;20455;-85
2022/05/02 03:28:07;;;;;;;14.60;12.57;;;10.70;99.90;;;;;;5060101;28;20412;-86
2022/05/02 03:30:33;;;;;;;13.67;11.70;;;10.70;99.90;;;;;;5050169;28;20420;-88
2022/05/02 03:33:01;;;;;;;14.27;11.60;;;10.80;99.90;;;;;;5045302;28;20463;-88
2022/05/02 03:35:28;;;;;;;14.07;12.30;;;10.80;99.90;;;;;;5048442;28;20462;-88
2022/05/02 03:37:57;;;;;;;15.87;12.63;;;10.80;99.90;;;;;;5055402;28;20528;-88
2022/05/02 03:40:24;;;;;;;14.50;12.90;;;10.80;99.90;;;;;;5050930;28;20471;-89
2022/05/02 03:42:51;;;;;;;18.80;13.83;;;10.90;99.90;;;;;;5040574;28;20485;-88
2022/05/02 03:45:18;;;;;;;15.87;13.73;;;11.00;99.90;;;;;;5040415;28;20786;-89
2022/05/02 03:47:45;;;;;;;13.73;12.07;;;11.00;99.90;;;;;;5040466;28;20918;-89
2022/05/02 03:50:12;;;;;;;16.80;13.20;;;11.00;99.90;;;;;;5041505;28;20535;-89
2022/05/02 03:52:39;;;;;;;15.73;13.00;;;11.00;99.90;;;;;;5045800;28;20495;-89
2022/05/02 03:55:08;;;;;;;14.50;11.87;;;11.00;99.90;;;;;;5055097;28;20935;-89
2022/05/02 03:57:35;;;;;;;15.10;13.47;;;11.00;99.90;;;;;;5057146;28;20452;-90
2022/05/02 04:00:02;;;;;;;15.20;12.63;;;10.90;99.90;;;;;;5046571;28;20464;-89
2022/05/02 04:02:28;;;;;;;15.50;13.33;;;10.90;99.90;;;;;;5040884;28;20596;-89
2022/05/02 04:04:55;;;;;;;15.00;13.40;;;10.90;99.90;;;;;;5044250;28;20455;-88
2022/05/02 04:07:22;;;;;;;16.97;12.87;;;11.00;99.90;;;;;;5046103;28;20446;-86
2022/05/02 04:09:49;;;;;;;15.10;12.57;;;11.10;99.90;;;;;;5058739;28;20471;-87
2022/05/02 04:12:17;;;;;;;15.07;13.20;;;11.10;99.90;;;;;;5059062;28;20474;-85
2022/05/02 04:14:44;;;;;;;16.03;13.10;;;11.10;99.90;;;;;;5059018;28;20453;-87
2022/05/02 04:17:11;;;;;;;15.60;13.63;;;11.10;99.90;;;;;;5058308;28;20553;-88
2022/05/02 04:19:38;;;;;;;15.53;13.33;;;11.10;99.90;;;;;;5056318;28;20469;-88
2022/05/02 04:22:05;;;;;;;14.20;12.70;;;11.20;99.90;;;;;;5045165;28;20446;-87
2022/05/02 04:24:32;;;;;;;15.60;13.40;;;11.20;99.90;;;;;;5040474;28;20435;-88
2022/05/02 04:26:59;;;;;;;16.13;14.03;;;11.20;99.90;;;;;;5039727;28;20477;-88
2022/05/02 04:29:27;;;;;;;14.23;12.27;;;11.20;99.90;;;;;;5040279;28;20452;-88
2022/05/02 04:31:54;;;;;;;16.30;12.70;;;11.20;99.90;;;;;;5040733;28;20455;-89
2022/05/02 04:34:21;;;;;;;17.37;13.70;;;11.30;99.90;;;;;;5043051;28;20457;-88
2022/05/02 04:36:48;;;;;;;16.00;12.60;;;11.30;99.90;;;;;;5040721;28;20485;-88
2022/05/02 04:39:14;;;;;;;18.73;12.97;;;11.30;99.90;;;;;;5039141;28;20866;-89
2022/05/02 04:41:41;;;;;;;15.37;13.37;;;11.30;99.90;;;;;;5040396;28;20893;-88
2022/05/02 04:44:08;;;;;;;14.70;12.60;;;11.30;99.90;;;;;;5038878;28;20468;-88
2022/05/02 04:46:36;;;;;;;18.37;13.77;;;11.40;99.90;;;;;;5040080;28;20447;-90
2022/05/02 04:49:03;;;;;;;16.57;13.20;;;11.40;99.90;;;;;;5053501;28;20466;-89
2022/05/02 04:51:30;;;;;;;17.80;13.03;;;11.30;99.90;;;;;;5049045;28;20497;-89
2022/05/02 04:53:57;;;;;;;17.50;14.00;;;11.30;99.90;;;;;;5041309;28;20456;-88
2022/05/02 04:56:24;;;;;;;17.37;14.00;;;11.30;99.90;;;;;;5054014;28;20449;-89
2022/05/02 04:58:51;;;;;;;17.87;13.93;;;11.30;99.90;;;;;;5049756;28;20471;-89
2022/05/02 05:01:18;;;;;;;17.80;14.63;;;11.30;99.90;;;;;;5048948;28;20500;-89
2022/05/02 05:03:47;;;;;;;18.17;14.70;;;11.30;99.90;;;;;;5046589;28;20451;-88
2022/05/02 05:06:15;;;;;;;15.97;13.70;;;11.30;99.90;;;;;;5048314;28;20445;-89
2022/05/02 05:08:43;;;;;;;17.27;13.87;;;11.40;99.90;;;;;;5043751;28;20478;-89
2022/05/02 05:11:27;;;;;;;16.83;15.03;;;11.40;99.90;;;;;;5046503;28;20493;-88
2022/05/02 05:17:02;;;;;;;14.90;13.20;;;11.50;99.90;;;;;;5054858;28;20453;-89
2022/05/02 05:19:47;;;;;;;19.53;14.13;;;11.60;99.90;;;;;;5047897;28;20470;-88
2022/05/02 05:22:38;;;;;;;17.00;14.20;;;11.60;99.90;;;;;;5046328;28;20927;-88
2022/05/02 05:25:25;;;;;;;17.70;14.77;;;11.70;99.90;;;;;;5045985;28;20416;-88
2022/05/02 05:28:13;;;;;;;18.63;13.53;;;11.70;99.90;;;;;;5046854;28;20440;-87
2022/05/02 05:30:46;;;;;;;14.73;13.00;;;11.70;99.90;;;;;;5048234;28;20496;-89
2022/05/02 05:33:25;;;;;;;17.20;14.93;;;11.70;99.90;;;;;;5050697;28;20510;-88
2022/05/02 05:36:03;;;;;;;16.47;14.10;;;11.80;99.90;;;;;;5049042;28;20466;-89
2022/05/02 05:38:40;;;;;;;19.43;15.90;;;11.80;99.90;;;;;;5050680;28;20535;-89
2022/05/02 05:41:22;;;;;;;21.07;15.60;;;11.70;99.90;;;;;;5087577;22;20489;-87
2022/05/02 05:43:59;;;;;;;19.90;14.97;;;11.80;99.90;;;;;;5044139;28;20815;-87
2022/05/02 05:46:38;;;;;;;20.63;15.17;;;11.80;99.90;;;;;;5041782;28;20457;-87
2022/05/02 05:49:13;;;;;;;16.90;15.10;;;11.90;99.90;;;;;;5055425;28;20433;-87
2022/05/02 05:52:08;;;;;;;19.97;16.47;;;12.00;99.90;;;;;;5055435;28;20428;-86
2022/05/02 05:54:49;;;;;;;18.90;16.60;;;12.00;99.90;;;;;;5049524;28;20721;-86
2022/05/02 05:57:28;;;;;;;21.07;17.10;;;12.00;99.90;;;;;;5054921;28;20470;-87
2022/05/02 06:00:09;;;;;;;19.33;16.60;;;12.10;99.90;;;;;;5056529;28;20468;-87
2022/05/02 06:02:52;;;;;;;20.27;16.60;;;12.20;99.90;;;;;;5057183;28;20392;-86
2022/05/02 06:05:19;;;;;;;21.43;18.13;;;12.30;99.90;;;;;;5050610;28;20442;-86
2022/05/02 06:07:57;;;;;;;22.80;18.57;;;12.40;99.90;;;;;;5045552;28;20428;-87
2022/05/02 06:10:39;;;;;;;27.77;19.23;;;12.40;99.90;;;;;;5047090;28;20482;-86
2022/05/02 06:13:10;;;;;;;21.90;18.60;;;12.70;99.90;;;;;;5046852;28;20449;-87
2022/05/02 06:18:36;;;;;;;23.53;19.90;;;12.80;99.90;;;;;;5034105;28;20477;-87
2022/05/02 06:21:07;;;;;;;24.93;20.67;;;12.70;99.90;;;;;;5043511;28;20455;-86
2022/05/02 06:23:42;;;;;;;26.87;19.60;;;12.60;99.90;;;;;;5045198;28;20431;-86
2022/05/02 06:26:12;;;;;;;26.07;19.83;;;12.70;99.90;;;;;;5049833;28;20479;-87
2022/05/02 06:28:43;;;;;;;26.77;20.37;;;12.70;99.90;;;;;;5043339;28;20451;-87
2022/05/02 06:31:16;;;;;;;27.57;21.07;;;12.80;99.90;;;;;;5045659;28;20470;-86
2022/05/02 06:33:48;;;;;;;26.27;21.40;;;12.90;99.90;;;;;;5046357;28;20384;-88
2022/05/02 06:36:45;;;;;;;25.70;21.20;;;12.90;99.90;;;;;;5048639;28;20408;-85
2022/05/02 06:39:26;;;;;;;27.20;21.63;;;13.00;99.90;;;;;;5023459;28;20489;-86
2022/05/02 06:42:21;;;;;;;25.03;19.33;;;13.00;99.90;;;;;;5024046;28;20492;-87
2022/05/02 06:45:04;;;;;;;25.17;20.43;;;13.00;99.90;;;;;;5024189;28;20421;-87
2022/05/02 06:47:46;;;;;;;23.50;20.17;;;13.10;99.90;;;;;;5025589;28;20438;-86
2022/05/02 06:50:17;;;;;;;25.63;20.37;;;13.40;99.90;;;;;;5027491;28;20478;-87
2022/05/02 06:52:57;;;;;;;28.77;20.23;;;13.40;99.90;;;;;;5031781;28;20485;-87
2022/05/02 06:55:32;;;;;;;29.57;20.63;;;13.40;99.90;;;;;;5033249;28;20439;-87
2022/05/02 06:58:14;;;;;;;24.10;20.53;;;13.30;99.90;;;;;;5028935;28;20448;-86
2022/05/02 07:00:53;;;;;;;24.90;19.90;;;13.30;99.90;;;;;;5026275;28;20502;-87
2022/05/02 07:03:47;;;;;;;22.57;19.60;;;13.60;99.90;;;;;;5023384;28;20409;-87
2022/05/02 07:06:23;;;;;;;24.10;20.17;;;13.60;99.90;;;;;;4997395;28;20933;-86
2022/05/02 07:09:04;;;;;;;23.17;19.00;;;13.70;99.90;;;;;;5022450;28;20492;-86
2022/05/02 07:11:40;;;;;;;22.00;19.60;;;13.70;99.90;;;;;;5025074;28;20474;-87
2022/05/02 07:14:22;;;;;;;26.10;20.77;;;13.80;99.90;;;;;;5023001;28;20427;-87
2022/05/02 07:16:58;;;;;;;25.57;19.90;;;13.90;99.90;;;;;;5025414;28;20455;-86
2022/05/02 07:19:48;;;;;;;24.10;21.07;;;14.10;99.90;;;;;;5029383;28;20458;-86
2022/05/02 07:22:26;;;;;;;21.07;18.80;;;14.20;99.90;;;;;;5033878;28;20531;-88
2022/05/02 07:25:04;;;;;;;22.20;19.80;;;14.30;99.90;;;;;;5032457;28;20442;-87
2022/05/02 07:27:54;;;;;;;23.23;18.53;;;14.30;99.90;;;;;;5030554;28;20837;-86
2022/05/02 07:33:10;;;;;;;22.57;18.47;;;14.50;99.90;;;;;;5026535;28;20417;-87
2022/05/02 07:35:39;;;;;;;22.23;19.83;;;14.60;99.90;;;;;;5027433;28;20463;-86
2022/05/02 07:38:09;;;;;;;24.80;21.30;;;14.70;99.90;;;;;;5025922;28;20464;-86
2022/05/02 07:41:22;;;;;;;26.17;19.80;;;14.60;99.90;;;;;;5026294;28;20486;-87
2022/05/02 07:43:27;;;;;;;22.20;19.37;;;14.60;99.90;;;;;;5026760;28;20458;-86
2022/05/02 07:45:54;;;;;;;20.97;17.27;;;14.70;99.90;;;;;;5030326;28;20844;-86
2022/05/02 07:48:24;;;;;;;21.80;18.70;;;14.80;99.90;;;;;;5029240;28;20448;-86
2022/05/02 07:50:53;;;;;;;24.30;19.50;;;14.70;99.90;;;;;;5030723;28;20597;-87
2022/05/02 07:53:22;;;;;;;30.30;19.10;;;14.70;99.90;;;;;;5026573;28;20522;-86
2022/05/02 07:55:54;;;;;;;23.63;21.13;;;14.70;99.90;;;;;;5030286;28;20429;-86
2022/05/02 07:58:30;;;;;;;23.10;19.83;;;14.70;99.90;;;;;;5034777;28;20912;-86
2022/05/02 08:00:59;;;;;;;23.47;20.60;;;14.80;99.90;;;;;;5028848;28;20474;-87
2022/05/02 08:03:28;;;;;;;24.30;19.00;;;14.90;99.90;;;;;;5026887;28;20505;-87
2022/05/02 08:06:05;;;;;;;25.50;20.60;;;15.00;99.90;;;;;;5027205;28;20544;-87
2022/05/02 08:08:38;;;;;;;21.43;18.73;;;15.20;99.90;;;;;;5025555;28;20469;-86
2022/05/02 08:11:15;;;;;;;23.97;20.60;;;15.30;99.90;;;;;;5035782;28;20447;-86
2022/05/02 08:14:03;;;;;;;22.73;18.33;;;15.40;99.90;;;;;;5038755;28;20457;-88
2022/05/02 08:16:38;;;;;;;21.27;17.10;;;15.50;99.90;;;;;;5038897;28;20451;-88
2022/05/02 08:19:17;;;;;;;20.70;16.70;;;15.40;99.90;;;;;;5036898;28;20524;-85
2022/05/02 08:27:15;;;;;;;19.40;16.60;;;15.40;99.90;;;;;;5036514;28;20458;-86
2022/05/02 08:27:53;;;;;;;21.73;16.63;;;15.40;99.90;;;;;;5031466;28;20441;-86
2022/05/02 08:30:24;;;;;;;21.00;16.10;;;15.60;99.90;;;;;;5030529;28;20633;-85
2022/05/02 08:33:00;;;;;;;20.13;17.37;;;15.60;99.90;;;;;;5027419;28;20429;-86
2022/05/02 08:35:44;;;;;;;21.60;19.27;;;15.60;99.90;;;;;;5027104;28;20443;-86
2022/05/02 08:38:46;;;;;;;21.73;19.43;;;15.60;99.90;;;;;;5032033;28;20478;-86
2022/05/02 08:42:02;;;;;;;20.10;16.93;;;15.60;99.90;;;;;;5031083;28;20460;-87
2022/05/02 08:45:17;;;;;;;19.93;17.37;;;15.60;99.90;;;;;;5036808;28;20534;-86
2022/05/02 08:48:41;;;;;;;20.80;18.57;;;15.70;99.90;;;;;;5031863;28;20808;-87
2022/05/02 08:51:46;;;;;;;21.03;16.90;;;15.60;99.90;;;;;;5033889;28;20469;-87
2022/05/02 08:54:49;;;;;;;23.87;19.93;;;15.70;99.90;;;;;;5030362;28;20438;-87
2022/05/02 08:57:58;;;;;;;21.10;16.30;;;15.70;99.90;;;;;;5027145;28;20442;-86
2022/05/02 09:00:36;;;;;;;22.60;17.30;;;15.70;99.90;;;;;;4983635;28;20489;-87
2022/05/02 09:03:33;;;;;;;19.20;16.60;;;15.90;99.90;;;;;;5026416;28;20920;-87
2022/05/02 09:06:50;;;;;;;23.07;17.63;;;16.00;99.90;;;;;;4993261;28;20474;-86
2022/05/02 09:09:54;;;;;;;21.90;17.80;;;16.10;99.90;;;;;;5026320;28;20420;-88
2022/05/02 09:12:49;;;;;;;19.27;15.60;;;16.40;99.90;;;;;;5025263;28;20900;-86
2022/05/02 09:15:49;;;;;;;18.10;16.20;;;16.80;99.90;;;;;;5024740;28;20439;-86
2022/05/02 09:18:55;;;;;;;17.20;14.60;;;16.90;99.90;;;;;;5019337;28;20478;-87
2022/05/02 09:21:29;;;;;;;19.63;16.20;;;16.80;99.90;;;;;;5028285;28;20481;-87
2022/05/02 09:24:25;;;;;;;18.63;16.63;;;16.60;99.90;;;;;;5029521;28;20477;-87
2022/05/02 09:27:47;;;;;;;17.50;15.70;;;16.30;99.90;;;;;;5028711;28;20450;-87
2022/05/02 09:30:51;;;;;;;17.40;15.13;;;16.40;99.90;;;;;;5036284;28;20475;-87
2022/05/02 09:33:38;;;;;;;19.57;15.67;;;16.40;99.90;;;;;;5030706;28;20457;-87
2022/05/02 09:36:20;;;;;;;21.33;18.67;;;16.50;99.90;;;;;;5024272;28;20438;-87
2022/05/02 09:38:51;;;;;;;17.43;15.10;;;16.80;99.90;;;;;;5026769;28;20505;-87
2022/05/02 09:41:46;;;;;;;17.83;15.43;;;16.80;99.90;;;;;;5025831;28;20485;-89
2022/05/02 09:50:25;;;;;;;13.80;11.10;;;17.50;99.90;;;;;;5022527;28;20446;-87
2022/05/02 09:53:09;;;;;;;19.13;15.10;;;17.40;99.90;;;;;;5023923;28;20797;-87
2022/05/02 09:58:35;;;;;;;14.50;12.20;;;17.20;99.90;;;;;;5024087;28;20461;-88
2022/05/02 10:01:10;;;;;;;12.70;10.10;;;17.20;99.90;;;;;;5024352;28;20454;-87
2022/05/02 10:03:40;;;;;;;14.80;12.17;;;17.10;99.90;;;;;;5029680;28;20446;-88
2022/05/02 10:06:13;;;;;;;13.53;11.47;;;17.10;99.90;;;;;;5027998;28;20417;-86
2022/05/02 10:08:53;;;;;;;12.27;10.77;;;17.20;99.90;;;;;;5030716;28;20913;-87
2022/05/02 10:11:58;;;;;;;14.20;9.33;;;17.30;99.90;;;;;;5027962;28;20512;-88
2022/05/02 10:15:08;;;;;;;13.87;10.80;;;17.30;99.90;;;;;;5025446;28;20438;-86
2022/05/02 10:18:12;;;;;;;12.20;10.90;;;17.50;99.90;;;;;;5025014;28;20456;-88
2022/05/02 10:20:59;;;;;;;12.03;9.33;;;17.60;98.60;;;;;;5005145;28;20501;-87
2022/05/02 10:24:01;;;;;;;14.10;12.60;;;17.40;98.60;;;;;;5028257;28;20422;-87
2022/05/02 10:26:33;;;;;;;12.37;10.47;;;17.50;99.00;;;;;;5035694;28;20460;-87
2022/05/02 10:29:36;;;;;;;12.20;9.20;;;17.80;99.00;;;;;;5036368;28;20505;-88
2022/05/02 10:32:28;;;;;;;10.27;9.17;;;17.90;95.90;;;;;;5036182;28;20450;-88
2022/05/02 10:35:01;;;;;;;12.03;10.83;;;18.10;97.70;;;;;;5027298;28;20436;-86
2022/05/02 10:37:38;;;;;;;12.93;10.90;;;18.10;98.10;;;;;;5022675;28;20443;-86
2022/05/02 10:40:10;;;;;;;8.93;7.90;;;18.40;97.50;;;;;;5022767;28;20482;-87
2022/05/02 10:42:42;;;;;;;7.60;6.80;;;18.60;95.20;;;;;;5021884;28;20458;-87
2022/05/02 10:45:14;;;;;;;9.03;7.83;;;18.80;92.90;;;;;;5033557;28;20422;-87
2022/05/02 10:47:49;;;;;;;9.03;7.57;;;18.90;93.10;;;;;;5023226;28;20554;-86
2022/05/02 10:50:19;;;;;;;10.67;8.03;;;19.10;92.50;;;;;;5026896;28;20572;-87
2022/05/02 10:52:56;;;;;;;8.40;7.60;;;18.90;92.30;;;;;;5025537;28;20462;-88
2022/05/02 10:55:33;;;;;;;10.90;8.00;;;18.90;92.80;;;;;;5024861;28;20389;-87
2022/05/02 10:58:03;;;;;;;8.10;7.17;;;18.90;92.40;;;;;;5028756;28;20456;-87
2022/05/02 11:00:32;;;;;;;10.23;9.10;;;18.80;92.00;;;;;;5028748;28;20657;-87
2022/05/02 11:03:29;;;;;;;10.83;9.33;;;18.60;93.60;;;;;;5029279;28;20450;-87
2022/05/02 11:06:23;;;;;;;10.47;9.37;;;18.70;93.90;;;;;;5028993;28;20450;-87
2022/05/02 11:08:58;;;;;;;10.13;9.13;;;18.60;93.80;;;;;;5024344;28;20446;-86
2022/05/02 11:11:28;;;;;;;9.93;8.33;;;18.70;93.50;;;;;;5028871;28;20956;-87
2022/05/02 11:14:05;;;;;;;9.43;8.37;;;18.90;93.30;;;;;;5028521;28;20460;-87
2022/05/02 11:16:44;;;;;;;9.43;7.33;;;18.90;92.50;;;;;;5031675;28;20426;-86
2022/05/02 11:22:24;;;;;;;10.10;8.00;;;19.00;92.20;;;;;;5028731;28;20434;-86
2022/05/02 11:25:01;;;;;;;8.97;7.73;;;19.30;91.90;;;;;;5030710;28;20454;-86
2022/05/02 11:27:38;;;;;;;9.50;8.07;;;19.50;91.10;;;;;;5031622;28;20434;-86
2022/05/02 11:30:08;;;;;;;8.73;7.57;;;19.40;91.00;;;;;;5027631;28;20553;-86
2022/05/02 11:32:46;;;;;;;8.43;7.57;;;19.40;90.10;;;;;;5030181;28;20451;-86
2022/05/02 11:35:16;;;;;;;8.60;6.87;;;19.40;90.30;;;;;;5030733;28;20434;-86
2022/05/02 11:37:55;;;;;;;10.50;7.70;;;19.40;90.50;;;;;;5033298;28;20419;-87
2022/05/02 11:40:28;;;;;;;9.20;8.00;;;19.40;90.50;;;;;;5033607;28;20586;-85
2022/05/02 11:42:59;;;;;;;9.90;8.93;;;19.50;90.10;;;;;;5055297;23;20494;-87
2022/05/02 11:45:37;;;;;;;10.40;9.30;;;19.50;91.10;;;;;;5025501;28;20439;-88
2022/05/02 11:48:14;;;;;;;10.67;9.10;;;19.30;91.50;;;;;;5024214;28;20541;-87
2022/05/02 11:50:44;;;;;;;12.67;9.60;;;19.20;92.10;;;;;;5023842;28;20463;-87
2022/05/02 11:53:17;;;;;;;12.20;9.10;;;19.20;92.10;;;;;;5022131;28;21063;-87
2022/05/02 11:55:47;;;;;;;10.87;8.47;;;19.20;92.40;;;;;;5023838;28;20438;-88
2022/05/02 11:58:27;;;;;;;9.83;7.67;;;19.30;92.10;;;;;;5035928;28;20407;-86
2022/05/02 12:01:04;;;;;;;8.23;6.17;;;19.20;91.80;;;;;;5033678;28;20472;-86
2022/05/02 12:03:53;;;;;;;8.40;7.30;;;19.10;91.80;;;;;;5030418;28;20956;-87
2022/05/02 12:06:40;;;;;;;10.10;9.07;;;18.90;92.10;;;;;;5024204;28;20495;-89
2022/05/02 12:09:26;;;;;;;8.90;7.43;;;19.00;92.30;;;;;;5025618;28;20466;-86
2022/05/02 12:11:58;;;;;;;13.23;11.47;;;19.10;92.10;;;;;;5027058;28;20562;-87
2022/05/02 12:14:32;;;;;;;9.30;8.00;;;19.00;92.40;;;;;;5026503;28;20450;-87
2022/05/02 12:17:09;;;;;;;10.30;8.20;;;19.10;92.30;;;;;;5025980;28;20434;-87
2022/05/02 12:19:38;;;;;;;9.37;8.47;;;19.00;92.60;;;;;;5024682;28;20838;-87
2022/05/02 12:22:09;;;;;;;13.00;8.27;;;19.00;91.80;;;;;;5024992;28;20546;-87
2022/05/02 12:24:39;;;;;;;12.10;7.67;;;19.10;92.10;;;;;;5025724;28;20909;-88
2022/05/02 12:27:11;;;;;;;8.57;7.50;;;19.20;92.00;;;;;;5027940;28;20450;-88
2022/05/02 12:29:41;;;;;;;8.03;6.97;;;19.30;91.70;;;;;;5036181;28;20473;-85
2022/05/02 12:32:09;;;;;;;9.37;8.20;;;19.40;91.40;;;;;;5036927;28;20501;-87
2022/05/02 12:34:38;;;;;;;9.07;7.10;;;19.60;91.40;;;;;;5034932;28;20438;-86
2022/05/02 12:37:09;;;;;;;7.00;5.83;;;19.80;90.10;;;;;;5027651;28;20443;-87
2022/05/02 12:39:48;;;;;;;7.83;6.40;;;19.40;89.40;;;;;;5020554;28;20577;-88
2022/05/02 12:42:18;;;;;;;9.50;6.63;;;19.30;90.30;;;;;;5021104;28;20478;-88
2022/05/02 12:45:18;;;;;;;7.37;6.10;;;19.50;90.30;;;;;;5023494;28;20442;-88
2022/05/02 12:48:08;;;;;;;7.50;6.70;;;19.70;90.00;;;;;;5022392;28;20458;-87
2022/05/02 12:50:58;;;;;;;7.73;6.63;;;20.00;88.60;;;;;;5026654;28;20449;-88
2022/05/02 12:56:40;;;;;;;7.83;6.80;;;20.10;88.10;;;;;;5021756;28;20414;-87
2022/05/02 13:01:59;;;;;;;7.80;7.00;;;20.10;90.30;;;;;;5021833;28;20892;-87
2022/05/02 13:05:00;;;;;;;8.13;7.10;;;20.10;90.30;;;;;;5022619;28;20533;-88
2022/05/02 13:07:41;;;;;;;8.43;7.20;;;19.90;89.40;;;;;;5028255;28;20451;-87
2022/05/02 13:10:26;;;;;;;8.80;7.90;;;19.80;89.90;;;;;;5033108;28;20450;-87
2022/05/02 13:13:38;;;;;;;;;;;;;;;;;;;;;
2022/05/02 13:16:25;;;;;;;7.60;5.80;;;20.10;89.90;;;;;;5020896;28;20446;-87
2022/05/02 13:19:10;;;;;;;7.03;6.00;;;20.00;88.40;;;;;;5022074;28;20569;-87
2022/05/02 13:21:43;;;;;;;6.43;5.57;;;19.90;88.70;;;;;;5020445;28;20941;-87
2022/05/02 13:24:12;;;;;;;6.73;5.43;;;20.10;88.00;;;;;;5022931;28;20454;-87
2022/05/02 13:27:22;;;;;;;7.10;6.20;;;19.80;86.30;;;;;;5025715;28;20459;-88
2022/05/02 13:30:08;;;;;;;7.20;5.13;;;19.80;87.00;;;;;;4943432;29;20446;-87
2022/05/02 13:33:03;;;;;;;7.50;5.53;;;19.70;87.60;;;;;;4944272;28;20486;-87
2022/05/02 13:35:34;;;;;;;6.17;5.47;;;19.90;86.90;;;;;;5020149;28;20525;-88
2022/05/02 13:38:14;;;;;;;6.40;5.23;;;19.90;86.80;;;;;;5019818;28;20612;-87
2022/05/02 13:41:00;;;;;;;6.87;5.77;;;20.10;86.00;;;;;;5019555;28;20528;-88
2022/05/02 13:43:38;;;;;;;7.33;6.37;;;20.10;85.50;;;;;;5027963;28;20502;-87
2022/05/02 13:46:22;;;;;;;8.07;6.17;;;20.30;85.10;;;;;;5031361;28;20446;-87
2022/05/02 13:49:14;;;;;;;8.50;6.53;;;20.00;84.90;;;;;;5024935;28;20504;-88